Riverton Regional Airport
KRIW : rendu visible

Aérodrome :











RETROUVEZ-NOUS SUR...

 
LOGIN :

S'inscrire | Disclaimer

   EN    FR    IT 

 









Légende :    VFR   VFR Marginal   IFR   IFR Intensif   IFR Très Intensif
Visi : 
Plafond : 
>= 8 km
>= 3000ft
5 à 8 km
1000 à 3000 ft
1500m à 5 km
500 à 1000 ft
800 à 1500m
200 à 500 ft
< 800m
< 200 ft
Symboles :   Orages  Brouillard  Fortes neiges  Fortes précipitations  Vent > 20 kt






- Altitude de l'aérodrome : 5525 ft


KRIW - Riverton Regional

DERNIER METAR :
  • 272053Z AUTO 06008KT 10SM BKN002 BKN090 OVC100 M01/M01 A2999 RMK AO2 SNE45 SLP186 P0003 60010 T10061011 51007

METARs EXPIRÉS :
  • 272041Z AUTO 05010KT 4SM -SN BR BKN002 BKN007 OVC090 M01/M01 A2998 RMK AO2 P0003 T10061011
  • 272016Z AUTO 04013KT 1/2SM SN FZFG FEW004 OVC009 M01/M01 A2997 RMK AO2 P0002 T10061011
  • 271953Z AUTO 36012KT 3/4SM -SN BR FEW005 OVC012 M01/M01 A2998 RMK AO2 SLP190 P0004 T10061011
  • 271923Z AUTO 34011KT 3/4SM -SN BR VV013 00/M01 A2999 RMK AO2 P0002 T00001011
  • 271905Z AUTO 32007KT 1SM -SN BR VV013 00/M01 A2999 RMK AO2 P0001 T00001006
  • 271853Z AUTO 33009KT 3/4SM -SN BR VV014 00/M01 A2999 RMK AO2 SLP186 P0003 T00001006
  • 271850Z AUTO 32009KT 3/4SM -SN BR VV014 00/M01 A2998 RMK AO2 P0002
  • 271808Z AUTO 01010KT 1SM -SN BR BKN022 BKN027 OVC035 M01/M02 A2997 RMK AO2 P0001 T10111017
  • 271753Z AUTO 02010KT 3/4SM -SN BR FEW003 BKN022 OVC036 M01/M02 A2996 RMK AO2 SLP180 P0004 60007 T10111022 11011 21056 51021

TAF KRIW
Valide du 27 à 18h jusqu'au 28 à 18h UTC


271737Z 2718/2818 36011KT 3SM -SN BKN030
TEMPO 2718/2720 1SM -SN
FM272100 33011KT P6SM SCT030 BKN060
FM280000 27008KT P6SM SCT080
FM281700 VRB04KT P6SM BKN200



MET'MAP, la Météo Aéronautique d'un coup d'oeil ! - Copyright ORBIFLY Décembre 2007 - Disclaimer

ORBIFLY MET'MAP TEAM :

Programmation & Développement : Alexandra Zaïnal
Sur une idée originale de : Baudouin d'Aumeries
Assistance à la programmation : Marc-Olivier Méhu
Soutien technique & logistique : Manuel Goepfert

Contact : metmap@orbifly.com




SOURCES & CREDITS :

   NOAA       Earth
Advisory